Glanamman, United Kingdom
Current Conditions -  °F | °C
As of 12:50 AM on Thursday 23 Oct 2014 (Local Time) from EGOP Reporting Station
Broken Clouds Broken Clouds  
Wind Chill: 57°   Ceiling: 2800
Heat Index: 57°   Visibility: 6mi
Dew Point: 50°   Wind: 22mph
Humidity: 77%   Direction: 250°WSW
Pressure: 30.15"   Gusts: NA
Location:  51.8°N, 3.93°W
Report Text: EGOP 222350Z AUTO 25019KT 9999 // BKN028/// 14/10 Q1021
Loading
Personal Weather Stations






























Interactive Weather Map
Tropical Storm Tracking
New forecast layout! Learn more

10-Day Weather Forecast

Advertisements
Track Severe Weather on mobile